sensor_id;sensor_type;location;lat;lon;timestamp;temperature;humidity
10057;DHT22;5068;51.286;7.518;2022-10-17T00:01:04;12.60;67.20
10057;DHT22;5068;51.286;7.518;2022-10-17T00:02:38;12.60;67.20
10057;DHT22;5068;51.286;7.518;2022-10-17T00:04:10;12.60;67.10
10057;DHT22;5068;51.286;7.518;2022-10-17T00:05:46;12.60;67.10
10057;DHT22;5068;51.286;7.518;2022-10-17T00:07:20;12.60;67.30
10057;DHT22;5068;51.286;7.518;2022-10-17T00:08:54;12.70;67.30
10057;DHT22;5068;51.286;7.518;2022-10-17T00:10:27;12.60;67.30
10057;DHT22;5068;51.286;7.518;2022-10-17T00:12:00;12.60;67.30
10057;DHT22;5068;51.286;7.518;2022-10-17T00:13:34;12.60;67.30
10057;DHT22;5068;51.286;7.518;2022-10-17T00:15:09;12.60;67.40
10057;DHT22;5068;51.286;7.518;2022-10-17T00:16:45;12.60;67.40
10057;DHT22;5068;51.286;7.518;2022-10-17T00:18:19;12.60;67.50
10057;DHT22;5068;51.286;7.518;2022-10-17T00:19:52;12.60;67.60
10057;DHT22;5068;51.286;7.518;2022-10-17T00:21:27;12.60;67.60
10057;DHT22;5068;51.286;7.518;2022-10-17T00:23:00;12.50;67.50
10057;DHT22;5068;51.286;7.518;2022-10-17T00:24:34;12.60;67.70
10057;DHT22;5068;51.286;7.518;2022-10-17T00:26:06;12.60;67.70
10057;DHT22;5068;51.286;7.518;2022-10-17T00:27:40;12.60;67.80
10057;DHT22;5068;51.286;7.518;2022-10-17T00:29:14;12.50;67.60
10057;DHT22;5068;51.286;7.518;2022-10-17T00:30:54;12.50;67.70
10057;DHT22;5068;51.286;7.518;2022-10-17T00:32:28;12.50;67.90
10057;DHT22;5068;51.286;7.518;2022-10-17T00:34:02;12.50;67.80
10057;DHT22;5068;51.286;7.518;2022-10-17T00:35:35;12.50;67.80
10057;DHT22;5068;51.286;7.518;2022-10-17T00:37:11;12.50;67.90
10057;DHT22;5068;51.286;7.518;2022-10-17T00:38:47;12.60;68.00
10057;DHT22;5068;51.286;7.518;2022-10-17T00:40:23;12.50;67.90
10057;DHT22;5068;51.286;7.518;2022-10-17T00:41:57;12.50;67.90
10057;DHT22;5068;51.286;7.518;2022-10-17T00:45:28;12.50;68.00
10057;DHT22;5068;51.286;7.518;2022-10-17T00:47:04;12.50;67.90
10057;DHT22;5068;51.286;7.518;2022-10-17T00:48:39;12.50;67.90
10057;DHT22;5068;51.286;7.518;2022-10-17T00:50:14;12.50;67.80
10057;DHT22;5068;51.286;7.518;2022-10-17T00:51:50;12.50;67.80
10057;DHT22;5068;51.286;7.518;2022-10-17T00:53:27;12.50;68.60
10057;DHT22;5068;51.286;7.518;2022-10-17T00:55:07;12.50;67.70
10057;DHT22;5068;51.286;7.518;2022-10-17T00:56:46;12.50;67.70
10057;DHT22;5068;51.286;7.518;2022-10-17T00:58:20;12.50;67.70
10057;DHT22;5068;51.286;7.518;2022-10-17T00:59:55;12.50;67.70
10057;DHT22;5068;51.286;7.518;2022-10-17T01:01:31;12.50;67.70
10057;DHT22;5068;51.286;7.518;2022-10-17T01:03:10;12.50;67.80
10057;DHT22;5068;51.286;7.518;2022-10-17T01:04:50;12.40;67.60
10057;DHT22;5068;51.286;7.518;2022-10-17T01:06:28;12.50;67.90
10057;DHT22;5068;51.286;7.518;2022-10-17T01:08:07;12.50;67.90
10057;DHT22;5068;51.286;7.518;2022-10-17T01:09:47;12.40;67.70
10057;DHT22;5068;51.286;7.518;2022-10-17T01:11:32;12.40;67.70
10057;DHT22;5068;51.286;7.518;2022-10-17T01:13:24;12.40;67.80
10057;DHT22;5068;51.286;7.518;2022-10-17T01:15:09;12.40;67.70
10057;DHT22;5068;51.286;7.518;2022-10-17T01:16:53;12.40;67.80
10057;DHT22;5068;51.286;7.518;2022-10-17T01:18:45;12.40;67.70
10057;DHT22;5068;51.286;7.518;2022-10-17T01:22:58;12.40;68.80
10057;DHT22;5068;51.286;7.518;2022-10-17T01:24:59;12.40;67.60
10057;DHT22;5068;51.286;7.518;2022-10-17T01:27:12;12.40;67.70
10057;DHT22;5068;51.286;7.518;2022-10-17T01:29:15;12.40;67.80
10057;DHT22;5068;51.286;7.518;2022-10-17T01:31:13;12.30;67.60
10057;DHT22;5068;51.286;7.518;2022-10-17T01:32:53;12.30;67.50
10057;DHT22;5068;51.286;7.518;2022-10-17T01:34:32;12.30;67.60
10057;DHT22;5068;51.286;7.518;2022-10-17T01:36:17;12.30;67.60
10057;DHT22;5068;51.286;7.518;2022-10-17T01:38:05;12.30;67.70
10057;DHT22;5068;51.286;7.518;2022-10-17T01:39:45;12.30;67.80
10057;DHT22;5068;51.286;7.518;2022-10-17T01:41:27;12.30;67.80
10057;DHT22;5068;51.286;7.518;2022-10-17T01:43:12;12.30;67.80
10057;DHT22;5068;51.286;7.518;2022-10-17T01:44:54;12.20;67.70
10057;DHT22;5068;51.286;7.518;2022-10-17T01:46:35;12.20;67.80
10057;DHT22;5068;51.286;7.518;2022-10-17T01:48:14;12.20;67.70
10057;DHT22;5068;51.286;7.518;2022-10-17T01:49:52;12.20;67.70
10057;DHT22;5068;51.286;7.518;2022-10-17T01:51:30;12.20;67.70
10057;DHT22;5068;51.286;7.518;2022-10-17T01:53:11;12.20;67.70
10057;DHT22;5068;51.286;7.518;2022-10-17T01:54:50;12.20;67.70
10057;DHT22;5068;51.286;7.518;2022-10-17T01:56:28;12.20;67.90
10057;DHT22;5068;51.286;7.518;2022-10-17T01:58:07;12.20;68.10
10057;DHT22;5068;51.286;7.518;2022-10-17T01:59:46;12.20;68.20
10057;DHT22;5068;51.286;7.518;2022-10-17T02:01:28;12.10;68.10
10057;DHT22;5068;51.286;7.518;2022-10-17T02:03:11;12.20;68.20
10057;DHT22;5068;51.286;7.518;2022-10-17T02:04:54;12.10;68.10
10057;DHT22;5068;51.286;7.518;2022-10-17T02:06:34;12.10;68.10
10057;DHT22;5068;51.286;7.518;2022-10-17T02:08:13;12.10;68.10
10057;DHT22;5068;51.286;7.518;2022-10-17T02:09:56;12.10;68.10
10057;DHT22;5068;51.286;7.518;2022-10-17T02:11:32;12.10;68.10
10057;DHT22;5068;51.286;7.518;2022-10-17T02:13:11;12.10;68.00
10057;DHT22;5068;51.286;7.518;2022-10-17T02:15:00;12.10;68.10
10057;DHT22;5068;51.286;7.518;2022-10-17T02:16:49;12.10;68.10
10057;DHT22;5068;51.286;7.518;2022-10-17T02:18:52;12.10;68.10
10057;DHT22;5068;51.286;7.518;2022-10-17T02:20:44;12.10;68.10
10057;DHT22;5068;51.286;7.518;2022-10-17T02:22:32;12.10;67.90
10057;DHT22;5068;51.286;7.518;2022-10-17T02:24:19;12.00;67.90
10057;DHT22;5068;51.286;7.518;2022-10-17T02:26:06;12.10;68.10
10057;DHT22;5068;51.286;7.518;2022-10-17T02:27:47;12.10;68.10
10057;DHT22;5068;51.286;7.518;2022-10-17T02:29:29;12.00;67.90
10057;DHT22;5068;51.286;7.518;2022-10-17T02:31:09;12.00;67.90
10057;DHT22;5068;51.286;7.518;2022-10-17T02:32:52;12.00;67.80
10057;DHT22;5068;51.286;7.518;2022-10-17T02:34:36;12.00;67.70
10057;DHT22;5068;51.286;7.518;2022-10-17T02:36:18;12.00;67.80
10057;DHT22;5068;51.286;7.518;2022-10-17T02:37:54;12.00;67.80
10057;DHT22;5068;51.286;7.518;2022-10-17T02:39:30;12.00;67.80
10057;DHT22;5068;51.286;7.518;2022-10-17T02:41:07;12.00;68.00
10057;DHT22;5068;51.286;7.518;2022-10-17T02:42:44;12.00;68.00
10057;DHT22;5068;51.286;7.518;2022-10-17T02:44:19;12.00;68.00
10057;DHT22;5068;51.286;7.518;2022-10-17T02:45:55;12.00;68.00
10057;DHT22;5068;51.286;7.518;2022-10-17T02:47:34;11.90;67.90
10057;DHT22;5068;51.286;7.518;2022-10-17T02:49:14;11.90;67.90
10057;DHT22;5068;51.286;7.518;2022-10-17T02:51:02;11.90;67.90
10057;DHT22;5068;51.286;7.518;2022-10-17T02:52:45;11.90;67.90
10057;DHT22;5068;51.286;7.518;2022-10-17T02:54:29;11.90;67.90
10057;DHT22;5068;51.286;7.518;2022-10-17T02:56:11;11.90;67.90
10057;DHT22;5068;51.286;7.518;2022-10-17T02:57:52;11.90;67.90
10057;DHT22;5068;51.286;7.518;2022-10-17T03:02:02;11.90;67.90
10057;DHT22;5068;51.286;7.518;2022-10-17T03:03:37;11.90;67.60
10057;DHT22;5068;51.286;7.518;2022-10-17T03:05:14;11.90;67.60
10057;DHT22;5068;51.286;7.518;2022-10-17T03:06:49;11.90;67.70
10057;DHT22;5068;51.286;7.518;2022-10-17T03:08:23;11.90;67.70
10057;DHT22;5068;51.286;7.518;2022-10-17T03:09:56;11.80;67.70
10057;DHT22;5068;51.286;7.518;2022-10-17T03:11:34;11.90;67.90
10057;DHT22;5068;51.286;7.518;2022-10-17T03:13:08;11.80;67.80
10057;DHT22;5068;51.286;7.518;2022-10-17T03:14:44;11.80;67.80
10057;DHT22;5068;51.286;7.518;2022-10-17T03:16:17;11.80;67.80
10057;DHT22;5068;51.286;7.518;2022-10-17T03:17:50;11.80;67.80
10057;DHT22;5068;51.286;7.518;2022-10-17T03:19:27;11.80;67.70
10057;DHT22;5068;51.286;7.518;2022-10-17T03:21:00;11.80;67.80
10057;DHT22;5068;51.286;7.518;2022-10-17T03:22:35;11.80;67.80
10057;DHT22;5068;51.286;7.518;2022-10-17T03:24:10;11.80;67.80
10057;DHT22;5068;51.286;7.518;2022-10-17T03:25:43;11.80;67.80
10057;DHT22;5068;51.286;7.518;2022-10-17T03:27:18;11.70;67.70
10057;DHT22;5068;51.286;7.518;2022-10-17T03:28:51;11.70;67.70
10057;DHT22;5068;51.286;7.518;2022-10-17T03:30:27;11.70;67.70
10057;DHT22;5068;51.286;7.518;2022-10-17T03:32:02;11.70;67.70
10057;DHT22;5068;51.286;7.518;2022-10-17T03:33:36;11.70;67.70
10057;DHT22;5068;51.286;7.518;2022-10-17T03:35:10;11.70;67.70
10057;DHT22;5068;51.286;7.518;2022-10-17T03:36:51;11.70;67.70
10057;DHT22;5068;51.286;7.518;2022-10-17T03:38:26;11.70;67.60
10057;DHT22;5068;51.286;7.518;2022-10-17T03:39:59;11.70;67.70
10057;DHT22;5068;51.286;7.518;2022-10-17T03:41:33;11.70;67.70
10057;DHT22;5068;51.286;7.518;2022-10-17T03:43:07;11.70;67.70
10057;DHT22;5068;51.286;7.518;2022-10-17T03:44:43;11.60;67.70
10057;DHT22;5068;51.286;7.518;2022-10-17T03:46:17;11.60;67.70
10057;DHT22;5068;51.286;7.518;2022-10-17T03:47:50;11.60;67.80
10057;DHT22;5068;51.286;7.518;2022-10-17T03:49:24;11.60;67.80
10057;DHT22;5068;51.286;7.518;2022-10-17T03:50:59;11.60;67.80
10057;DHT22;5068;51.286;7.518;2022-10-17T03:52:34;11.60;67.90
10057;DHT22;5068;51.286;7.518;2022-10-17T03:54:09;11.60;67.90
10057;DHT22;5068;51.286;7.518;2022-10-17T03:55:43;11.50;67.80
10057;DHT22;5068;51.286;7.518;2022-10-17T03:57:17;11.60;68.00
10057;DHT22;5068;51.286;7.518;2022-10-17T03:58:51;11.60;67.90
10057;DHT22;5068;51.286;7.518;2022-10-17T04:00:25;11.60;67.80
10057;DHT22;5068;51.286;7.518;2022-10-17T04:02:01;11.60;67.70
10057;DHT22;5068;51.286;7.518;2022-10-17T04:03:34;11.60;67.70
10057;DHT22;5068;51.286;7.518;2022-10-17T04:05:08;11.60;67.60
10057;DHT22;5068;51.286;7.518;2022-10-17T04:06:41;11.50;67.50
10057;DHT22;5068;51.286;7.518;2022-10-17T04:08:15;11.50;67.60
10057;DHT22;5068;51.286;7.518;2022-10-17T04:10:08;11.50;67.70
10057;DHT22;5068;51.286;7.518;2022-10-17T04:11:42;11.50;67.70
10057;DHT22;5068;51.286;7.518;2022-10-17T04:13:16;11.50;67.80
10057;DHT22;5068;51.286;7.518;2022-10-17T04:14:50;11.50;67.70
10057;DHT22;5068;51.286;7.518;2022-10-17T04:16:25;11.50;67.70
10057;DHT22;5068;51.286;7.518;2022-10-17T04:18:04;11.50;67.70
10057;DHT22;5068;51.286;7.518;2022-10-17T04:19:38;11.50;67.70
10057;DHT22;5068;51.286;7.518;2022-10-17T04:21:13;11.50;67.70
10057;DHT22;5068;51.286;7.518;2022-10-17T04:22:46;11.50;67.80
10057;DHT22;5068;51.286;7.518;2022-10-17T04:24:20;11.50;67.90
10057;DHT22;5068;51.286;7.518;2022-10-17T04:26:04;11.40;67.90
10057;DHT22;5068;51.286;7.518;2022-10-17T04:27:38;11.50;68.10
10057;DHT22;5068;51.286;7.518;2022-10-17T04:29:12;11.50;68.00
10057;DHT22;5068;51.286;7.518;2022-10-17T04:30:55;11.50;68.10
10057;DHT22;5068;51.286;7.518;2022-10-17T04:32:35;11.50;68.20
10057;DHT22;5068;51.286;7.518;2022-10-17T04:34:17;11.40;68.10
10057;DHT22;5068;51.286;7.518;2022-10-17T04:35:56;11.40;68.10
10057;DHT22;5068;51.286;7.518;2022-10-17T04:37:30;11.40;68.20
10057;DHT22;5068;51.286;7.518;2022-10-17T04:39:06;11.40;68.20
10057;DHT22;5068;51.286;7.518;2022-10-17T04:40:40;11.40;68.40
10057;DHT22;5068;51.286;7.518;2022-10-17T04:42:15;11.40;68.50
10057;DHT22;5068;51.286;7.518;2022-10-17T04:43:48;11.40;68.70
10057;DHT22;5068;51.286;7.518;2022-10-17T04:45:24;11.40;68.70
10057;DHT22;5068;51.286;7.518;2022-10-17T04:47:01;11.40;68.90
10057;DHT22;5068;51.286;7.518;2022-10-17T04:48:35;11.40;69.00
10057;DHT22;5068;51.286;7.518;2022-10-17T04:50:09;11.40;69.20
10057;DHT22;5068;51.286;7.518;2022-10-17T04:51:45;11.40;69.20
10057;DHT22;5068;51.286;7.518;2022-10-17T04:53:36;11.40;69.40
10057;DHT22;5068;51.286;7.518;2022-10-17T04:55:10;11.40;69.40
10057;DHT22;5068;51.286;7.518;2022-10-17T04:56:44;11.40;69.40
10057;DHT22;5068;51.286;7.518;2022-10-17T04:58:20;11.40;69.40
10057;DHT22;5068;51.286;7.518;2022-10-17T04:59:54;11.40;69.50
10057;DHT22;5068;51.286;7.518;2022-10-17T05:01:48;11.40;69.50
10057;DHT22;5068;51.286;7.518;2022-10-17T05:03:22;11.40;69.40
10057;DHT22;5068;51.286;7.518;2022-10-17T05:04:56;11.40;69.50
10057;DHT22;5068;51.286;7.518;2022-10-17T05:06:29;11.40;69.40
10057;DHT22;5068;51.286;7.518;2022-10-17T05:08:24;11.40;69.40
10057;DHT22;5068;51.286;7.518;2022-10-17T05:09:58;11.40;69.30
10057;DHT22;5068;51.286;7.518;2022-10-17T05:11:32;11.40;69.20
10057;DHT22;5068;51.286;7.518;2022-10-17T05:13:05;11.40;70.20
10057;DHT22;5068;51.286;7.518;2022-10-17T05:14:41;11.40;69.50
10057;DHT22;5068;51.286;7.518;2022-10-17T05:16:14;11.40;69.50
10057;DHT22;5068;51.286;7.518;2022-10-17T05:17:48;11.40;69.50
10057;DHT22;5068;51.286;7.518;2022-10-17T05:19:23;11.40;69.60
10057;DHT22;5068;51.286;7.518;2022-10-17T05:20:58;11.40;69.60
10057;DHT22;5068;51.286;7.518;2022-10-17T05:22:32;11.40;69.60
10057;DHT22;5068;51.286;7.518;2022-10-17T05:24:13;11.40;69.70
10057;DHT22;5068;51.286;7.518;2022-10-17T05:25:47;11.40;69.60
10057;DHT22;5068;51.286;7.518;2022-10-17T05:27:20;11.30;69.50
10057;DHT22;5068;51.286;7.518;2022-10-17T05:28:53;11.40;69.60
10057;DHT22;5068;51.286;7.518;2022-10-17T05:30:30;11.40;69.70
10057;DHT22;5068;51.286;7.518;2022-10-17T05:32:11;11.30;69.60
10057;DHT22;5068;51.286;7.518;2022-10-17T05:33:44;11.30;69.60
10057;DHT22;5068;51.286;7.518;2022-10-17T05:35:18;11.30;69.70
10057;DHT22;5068;51.286;7.518;2022-10-17T05:36:52;11.30;69.70
10057;DHT22;5068;51.286;7.518;2022-10-17T05:38:27;11.30;69.70
10057;DHT22;5068;51.286;7.518;2022-10-17T05:40:01;11.30;69.80
10057;DHT22;5068;51.286;7.518;2022-10-17T05:41:35;11.30;70.00
10057;DHT22;5068;51.286;7.518;2022-10-17T05:43:08;11.30;70.10
10057;DHT22;5068;51.286;7.518;2022-10-17T05:44:42;11.30;70.20
10057;DHT22;5068;51.286;7.518;2022-10-17T05:46:18;11.30;70.30
10057;DHT22;5068;51.286;7.518;2022-10-17T05:47:51;11.30;70.30
10057;DHT22;5068;51.286;7.518;2022-10-17T05:49:25;11.30;70.30
10057;DHT22;5068;51.286;7.518;2022-10-17T05:51:18;11.30;70.30
10057;DHT22;5068;51.286;7.518;2022-10-17T05:52:52;11.30;70.30
10057;DHT22;5068;51.286;7.518;2022-10-17T05:54:26;11.40;70.40
10057;DHT22;5068;51.286;7.518;2022-10-17T05:56:02;11.30;70.40
10057;DHT22;5068;51.286;7.518;2022-10-17T05:57:37;11.30;70.40
10057;DHT22;5068;51.286;7.518;2022-10-17T05:59:14;11.30;70.40
10057;DHT22;5068;51.286;7.518;2022-10-17T06:00:58;11.30;70.50
10057;DHT22;5068;51.286;7.518;2022-10-17T06:02:36;11.30;70.60
10057;DHT22;5068;51.286;7.518;2022-10-17T06:04:09;11.30;70.50
10057;DHT22;5068;51.286;7.518;2022-10-17T06:05:43;11.40;70.60
10057;DHT22;5068;51.286;7.518;2022-10-17T06:07:16;11.30;70.50
10057;DHT22;5068;51.286;7.518;2022-10-17T06:08:49;11.30;70.60
10057;DHT22;5068;51.286;7.518;2022-10-17T06:10:28;11.30;70.60
10057;DHT22;5068;51.286;7.518;2022-10-17T06:12:02;11.40;70.80
10057;DHT22;5068;51.286;7.518;2022-10-17T06:13:36;11.40;70.80
10057;DHT22;5068;51.286;7.518;2022-10-17T06:15:16;11.30;70.70
10057;DHT22;5068;51.286;7.518;2022-10-17T06:16:55;11.40;70.90
10057;DHT22;5068;51.286;7.518;2022-10-17T06:18:30;11.40;71.00
10057;DHT22;5068;51.286;7.518;2022-10-17T06:20:05;11.40;71.10
10057;DHT22;5068;51.286;7.518;2022-10-17T06:21:39;11.40;71.20
10057;DHT22;5068;51.286;7.518;2022-10-17T06:23:17;11.40;71.20
10057;DHT22;5068;51.286;7.518;2022-10-17T06:24:59;11.40;71.40
10057;DHT22;5068;51.286;7.518;2022-10-17T06:26:33;11.40;71.40
10057;DHT22;5068;51.286;7.518;2022-10-17T06:28:09;11.50;71.60
10057;DHT22;5068;51.286;7.518;2022-10-17T06:29:43;11.40;71.50
10057;DHT22;5068;51.286;7.518;2022-10-17T06:31:17;11.40;71.60
10057;DHT22;5068;51.286;7.518;2022-10-17T06:32:51;11.50;71.80
10057;DHT22;5068;51.286;7.518;2022-10-17T06:34:26;11.50;71.90
10057;DHT22;5068;51.286;7.518;2022-10-17T06:35:59;11.50;72.00
10057;DHT22;5068;51.286;7.518;2022-10-17T06:37:35;11.50;72.00
10057;DHT22;5068;51.286;7.518;2022-10-17T06:39:12;11.50;71.90
10057;DHT22;5068;51.286;7.518;2022-10-17T06:40:52;11.50;72.00
10057;DHT22;5068;51.286;7.518;2022-10-17T06:42:28;11.60;72.10
10057;DHT22;5068;51.286;7.518;2022-10-17T06:44:21;11.60;72.00
10057;DHT22;5068;51.286;7.518;2022-10-17T06:46:19;11.60;72.00
10057;DHT22;5068;51.286;7.518;2022-10-17T06:48:01;11.60;72.00
10057;DHT22;5068;51.286;7.518;2022-10-17T06:49:55;11.60;72.20
10057;DHT22;5068;51.286;7.518;2022-10-17T06:51:35;11.60;72.20
10057;DHT22;5068;51.286;7.518;2022-10-17T06:53:12;11.70;72.40
10057;DHT22;5068;51.286;7.518;2022-10-17T06:54:54;11.70;72.50
10057;DHT22;5068;51.286;7.518;2022-10-17T06:56:36;11.70;72.60
10057;DHT22;5068;51.286;7.518;2022-10-17T06:58:31;11.80;72.80
10057;DHT22;5068;51.286;7.518;2022-10-17T07:00:25;11.70;72.80
10057;DHT22;5068;51.286;7.518;2022-10-17T07:02:01;11.80;73.00
10057;DHT22;5068;51.286;7.518;2022-10-17T07:03:35;11.80;72.90
10057;DHT22;5068;51.286;7.518;2022-10-17T07:05:10;11.80;72.90
10057;DHT22;5068;51.286;7.518;2022-10-17T07:06:43;11.80;73.20
10057;DHT22;5068;51.286;7.518;2022-10-17T07:08:21;11.80;73.30
10057;DHT22;5068;51.286;7.518;2022-10-17T07:09:55;11.90;73.50
10057;DHT22;5068;51.286;7.518;2022-10-17T07:11:28;11.90;73.70
10057;DHT22;5068;51.286;7.518;2022-10-17T07:13:02;12.00;74.00
10057;DHT22;5068;51.286;7.518;2022-10-17T07:14:37;11.90;74.10
10057;DHT22;5068;51.286;7.518;2022-10-17T07:16:11;12.00;74.20
10057;DHT22;5068;51.286;7.518;2022-10-17T07:17:47;12.00;74.40
10057;DHT22;5068;51.286;7.518;2022-10-17T07:19:23;12.00;74.60
10057;DHT22;5068;51.286;7.518;2022-10-17T07:20:59;12.10;74.70
10057;DHT22;5068;51.286;7.518;2022-10-17T07:22:33;12.10;74.90
10057;DHT22;5068;51.286;7.518;2022-10-17T07:24:07;12.10;74.90
10057;DHT22;5068;51.286;7.518;2022-10-17T07:25:42;12.20;75.20
10057;DHT22;5068;51.286;7.518;2022-10-17T07:27:15;12.20;75.20
10057;DHT22;5068;51.286;7.518;2022-10-17T07:28:52;12.30;75.30
10057;DHT22;5068;51.286;7.518;2022-10-17T07:30:46;12.30;75.40
10057;DHT22;5068;51.286;7.518;2022-10-17T07:32:25;12.40;75.50
10057;DHT22;5068;51.286;7.518;2022-10-17T07:33:59;12.40;75.70
10057;DHT22;5068;51.286;7.518;2022-10-17T07:35:32;12.40;76.00
10057;DHT22;5068;51.286;7.518;2022-10-17T07:37:07;12.50;76.40
10057;DHT22;5068;51.286;7.518;2022-10-17T07:38:44;12.60;76.70
10057;DHT22;5068;51.286;7.518;2022-10-17T07:40:17;12.60;76.70
10057;DHT22;5068;51.286;7.518;2022-10-17T07:41:51;12.60;76.80
10057;DHT22;5068;51.286;7.518;2022-10-17T07:43:27;12.70;76.90
10057;DHT22;5068;51.286;7.518;2022-10-17T07:45:03;12.70;77.00
10057;DHT22;5068;51.286;7.518;2022-10-17T07:46:37;12.80;77.30
10057;DHT22;5068;51.286;7.518;2022-10-17T07:48:11;12.90;77.50
10057;DHT22;5068;51.286;7.518;2022-10-17T07:49:44;12.90;77.50
10057;DHT22;5068;51.286;7.518;2022-10-17T07:51:18;12.90;77.70
10057;DHT22;5068;51.286;7.518;2022-10-17T07:52:54;13.00;78.00
10057;DHT22;5068;51.286;7.518;2022-10-17T07:54:27;13.00;78.10
10057;DHT22;5068;51.286;7.518;2022-10-17T07:56:03;13.10;78.00
10057;DHT22;5068;51.286;7.518;2022-10-17T07:57:38;13.10;78.20
10057;DHT22;5068;51.286;7.518;2022-10-17T07:59:12;13.20;78.20
10057;DHT22;5068;51.286;7.518;2022-10-17T08:00:45;13.30;78.40
10057;DHT22;5068;51.286;7.518;2022-10-17T08:02:22;13.30;78.60
10057;DHT22;5068;51.286;7.518;2022-10-17T08:03:56;13.30;78.60
10057;DHT22;5068;51.286;7.518;2022-10-17T08:05:32;13.40;78.70
10057;DHT22;5068;51.286;7.518;2022-10-17T08:07:05;13.50;78.80
10057;DHT22;5068;51.286;7.518;2022-10-17T08:08:55;13.50;78.80
10057;DHT22;5068;51.286;7.518;2022-10-17T08:10:30;13.60;78.90
10057;DHT22;5068;51.286;7.518;2022-10-17T08:12:04;13.70;79.00
10057;DHT22;5068;51.286;7.518;2022-10-17T08:13:39;13.70;79.00
10057;DHT22;5068;51.286;7.518;2022-10-17T08:15:13;13.80;79.20
10057;DHT22;5068;51.286;7.518;2022-10-17T08:16:46;13.80;79.90
10057;DHT22;5068;51.286;7.518;2022-10-17T08:18:20;13.90;79.30
10057;DHT22;5068;51.286;7.518;2022-10-17T08:19:53;13.90;79.30
10057;DHT22;5068;51.286;7.518;2022-10-17T08:21:28;14.00;79.30
10057;DHT22;5068;51.286;7.518;2022-10-17T08:23:01;14.10;79.50
10057;DHT22;5068;51.286;7.518;2022-10-17T08:24:36;14.10;79.50
10057;DHT22;5068;51.286;7.518;2022-10-17T08:26:10;14.20;79.50
10057;DHT22;5068;51.286;7.518;2022-10-17T08:27:48;14.20;79.60
10057;DHT22;5068;51.286;7.518;2022-10-17T08:29:21;14.30;79.60
10057;DHT22;5068;51.286;7.518;2022-10-17T08:31:01;14.40;79.60
10057;DHT22;5068;51.286;7.518;2022-10-17T08:32:35;14.50;79.80
10057;DHT22;5068;51.286;7.518;2022-10-17T08:34:09;14.50;79.50
10057;DHT22;5068;51.286;7.518;2022-10-17T08:35:42;14.60;79.40
10057;DHT22;5068;51.286;7.518;2022-10-17T08:37:15;14.60;79.00
10057;DHT22;5068;51.286;7.518;2022-10-17T08:38:49;14.70;78.90
10057;DHT22;5068;51.286;7.518;2022-10-17T08:40:30;14.80;78.80
10057;DHT22;5068;51.286;7.518;2022-10-17T08:42:25;14.90;78.80
10057;DHT22;5068;51.286;7.518;2022-10-17T08:44:20;15.00;78.80
10057;DHT22;5068;51.286;7.518;2022-10-17T08:46:04;15.00;78.20
10057;DHT22;5068;51.286;7.518;2022-10-17T08:47:42;15.10;78.10
10057;DHT22;5068;51.286;7.518;2022-10-17T08:49:22;15.20;77.90
10057;DHT22;5068;51.286;7.518;2022-10-17T08:51:09;15.30;77.70
10057;DHT22;5068;51.286;7.518;2022-10-17T08:52:50;15.40;77.00
10057;DHT22;5068;51.286;7.518;2022-10-17T08:54:38;15.40;76.80
10057;DHT22;5068;51.286;7.518;2022-10-17T08:56:20;15.50;76.50
10057;DHT22;5068;51.286;7.518;2022-10-17T08:58:19;15.50;76.60
10057;DHT22;5068;51.286;7.518;2022-10-17T08:59:53;15.60;76.30
10057;DHT22;5068;51.286;7.518;2022-10-17T09:01:33;15.70;76.30
10057;DHT22;5068;51.286;7.518;2022-10-17T09:03:27;15.80;76.80
10057;DHT22;5068;51.286;7.518;2022-10-17T09:05:29;15.80;75.90
10057;DHT22;5068;51.286;7.518;2022-10-17T09:07:19;15.90;75.70
10057;DHT22;5068;51.286;7.518;2022-10-17T09:09:10;16.00;75.40
10057;DHT22;5068;51.286;7.518;2022-10-17T09:10:54;16.10;75.50
10057;DHT22;5068;51.286;7.518;2022-10-17T09:12:37;16.20;75.60
10057;DHT22;5068;51.286;7.518;2022-10-17T09:14:42;16.20;75.30
10057;DHT22;5068;51.286;7.518;2022-10-17T09:16:49;16.40;74.50
10057;DHT22;5068;51.286;7.518;2022-10-17T09:18:33;16.50;74.70
10057;DHT22;5068;51.286;7.518;2022-10-17T09:20:13;16.60;74.80
10057;DHT22;5068;51.286;7.518;2022-10-17T09:21:54;16.70;74.20
10057;DHT22;5068;51.286;7.518;2022-10-17T09:23:42;16.80;73.30
10057;DHT22;5068;51.286;7.518;2022-10-17T09:25:18;16.80;73.20
10057;DHT22;5068;51.286;7.518;2022-10-17T09:26:53;16.90;73.20
10057;DHT22;5068;51.286;7.518;2022-10-17T09:28:32;17.00;72.70
10057;DHT22;5068;51.286;7.518;2022-10-17T09:30:32;17.00;71.70
10057;DHT22;5068;51.286;7.518;2022-10-17T09:32:20;17.10;71.20
10057;DHT22;5068;51.286;7.518;2022-10-17T09:34:00;17.20;71.80
10057;DHT22;5068;51.286;7.518;2022-10-17T09:35:35;17.30;71.60
10057;DHT22;5068;51.286;7.518;2022-10-17T09:37:12;17.40;71.80
10057;DHT22;5068;51.286;7.518;2022-10-17T09:38:49;17.50;70.80
10057;DHT22;5068;51.286;7.518;2022-10-17T09:40:30;17.60;70.30
10057;DHT22;5068;51.286;7.518;2022-10-17T09:42:04;17.70;70.10
10057;DHT22;5068;51.286;7.518;2022-10-17T09:43:39;17.80;70.60
10057;DHT22;5068;51.286;7.518;2022-10-17T09:45:16;17.80;69.80
10057;DHT22;5068;51.286;7.518;2022-10-17T09:47:04;17.90;69.20
10057;DHT22;5068;51.286;7.518;2022-10-17T09:48:50;18.00;69.20
10057;DHT22;5068;51.286;7.518;2022-10-17T09:50:30;18.10;69.30
10057;DHT22;5068;51.286;7.518;2022-10-17T09:52:10;18.20;69.80
10057;DHT22;5068;51.286;7.518;2022-10-17T09:53:49;18.30;69.00
10057;DHT22;5068;51.286;7.518;2022-10-17T09:55:31;18.40;69.00
10057;DHT22;5068;51.286;7.518;2022-10-17T09:57:11;18.50;68.50
10057;DHT22;5068;51.286;7.518;2022-10-17T09:58:49;18.60;68.30
10057;DHT22;5068;51.286;7.518;2022-10-17T10:00:27;18.70;67.40
10057;DHT22;5068;51.286;7.518;2022-10-17T10:02:16;18.80;67.50
10057;DHT22;5068;51.286;7.518;2022-10-17T10:04:07;19.00;67.00
10057;DHT22;5068;51.286;7.518;2022-10-17T10:05:56;19.10;66.20
10057;DHT22;5068;51.286;7.518;2022-10-17T10:07:33;19.20;66.30
10057;DHT22;5068;51.286;7.518;2022-10-17T10:09:20;19.30;66.20
10057;DHT22;5068;51.286;7.518;2022-10-17T10:11:07;19.40;64.40
10057;DHT22;5068;51.286;7.518;2022-10-17T10:13:01;19.50;63.70
10057;DHT22;5068;51.286;7.518;2022-10-17T10:14:39;19.60;62.80
10057;DHT22;5068;51.286;7.518;2022-10-17T10:16:21;19.60;63.50
10057;DHT22;5068;51.286;7.518;2022-10-17T10:17:57;19.70;62.80
10057;DHT22;5068;51.286;7.518;2022-10-17T10:19:32;19.70;62.50
10057;DHT22;5068;51.286;7.518;2022-10-17T10:21:10;19.80;62.30
10057;DHT22;5068;51.286;7.518;2022-10-17T10:23:10;19.80;61.80
10057;DHT22;5068;51.286;7.518;2022-10-17T10:25:06;19.80;60.60
10057;DHT22;5068;51.286;7.518;2022-10-17T10:26:43;19.80;61.00
10057;DHT22;5068;51.286;7.518;2022-10-17T10:28:19;19.90;61.60
10057;DHT22;5068;51.286;7.518;2022-10-17T10:29:56;19.90;61.50
10057;DHT22;5068;51.286;7.518;2022-10-17T10:31:33;19.90;61.40
10057;DHT22;5068;51.286;7.518;2022-10-17T10:33:10;19.90;61.40
10057;DHT22;5068;51.286;7.518;2022-10-17T10:34:48;19.90;61.20
10057;DHT22;5068;51.286;7.518;2022-10-17T10:36:24;19.90;60.90
10057;DHT22;5068;51.286;7.518;2022-10-17T10:37:58;19.90;61.10
10057;DHT22;5068;51.286;7.518;2022-10-17T10:39:40;19.90;61.20